sensor_id;sensor_type;location;lat;lon;timestamp;P1;P2;P0
77699;PMS5003;66867;42.658;23.320;2023-04-03T00:00:00;12;12;
77699;PMS5003;66867;42.658;23.320;2023-04-03T00:01:00;12;12;
77699;PMS5003;66867;42.658;23.320;2023-04-03T00:02:00;13;13;
77699;PMS5003;66867;42.658;23.320;2023-04-03T00:03:00;13;12;
77699;PMS5003;66867;42.658;23.320;2023-04-03T00:04:00;12;11;
77699;PMS5003;66867;42.658;23.320;2023-04-03T00:05:00;13;11;
77699;PMS5003;66867;42.658;23.320;2023-04-03T00:06:00;12;12;
77699;PMS5003;66867;42.658;23.320;2023-04-03T00:07:00;13;13;
77699;PMS5003;66867;42.658;23.320;2023-04-03T00:08:00;14;13;
77699;PMS5003;66867;42.658;23.320;2023-04-03T00:09:00;12;12;
77699;PMS5003;66867;42.658;23.320;2023-04-03T00:10:00;14;13;
77699;PMS5003;66867;42.658;23.320;2023-04-03T00:11:01;11;11;
77699;PMS5003;66867;42.658;23.320;2023-04-03T00:12:00;11;11;
77699;PMS5003;66867;42.658;23.320;2023-04-03T00:13:00;13;13;
77699;PMS5003;66867;42.658;23.320;2023-04-03T00:14:00;13;12;
77699;PMS5003;66867;42.658;23.320;2023-04-03T00:15:00;12;12;
77699;PMS5003;66867;42.658;23.320;2023-04-03T00:16:00;10;10;
77699;PMS5003;66867;42.658;23.320;2023-04-03T00:17:00;11;11;
77699;PMS5003;66867;42.658;23.320;2023-04-03T00:18:01;14;13;
77699;PMS5003;66867;42.658;23.320;2023-04-03T00:19:00;14;14;
77699;PMS5003;66867;42.658;23.320;2023-04-03T00:20:00;13;13;
77699;PMS5003;66867;42.658;23.320;2023-04-03T00:21:00;14;14;
77699;PMS5003;66867;42.658;23.320;2023-04-03T00:22:00;20;19;
77699;PMS5003;66867;42.658;23.320;2023-04-03T00:23:01;22;20;
77699;PMS5003;66867;42.658;23.320;2023-04-03T00:24:00;19;18;
77699;PMS5003;66867;42.658;23.320;2023-04-03T00:25:00;19;16;
77699;PMS5003;66867;42.658;23.320;2023-04-03T00:26:00;20;19;
77699;PMS5003;66867;42.658;23.320;2023-04-03T00:27:00;15;14;
77699;PMS5003;66867;42.658;23.320;2023-04-03T00:28:00;18;17;
77699;PMS5003;66867;42.658;23.320;2023-04-03T00:29:00;18;17;
77699;PMS5003;66867;42.658;23.320;2023-04-03T00:30:00;19;19;
77699;PMS5003;66867;42.658;23.320;2023-04-03T00:31:00;17;16;
77699;PMS5003;66867;42.658;23.320;2023-04-03T00:32:00;17;17;
77699;PMS5003;66867;42.658;23.320;2023-04-03T00:33:00;16;16;
77699;PMS5003;66867;42.658;23.320;2023-04-03T00:34:00;14;14;
77699;PMS5003;66867;42.658;23.320;2023-04-03T00:35:00;20;19;
77699;PMS5003;66867;42.658;23.320;2023-04-03T00:36:05;19;17;
77699;PMS5003;66867;42.658;23.320;2023-04-03T00:37:00;17;17;
77699;PMS5003;66867;42.658;23.320;2023-04-03T00:38:00;18;18;
77699;PMS5003;66867;42.658;23.320;2023-04-03T00:39:00;21;20;
77699;PMS5003;66867;42.658;23.320;2023-04-03T00:40:00;20;20;
77699;PMS5003;66867;42.658;23.320;2023-04-03T00:41:00;18;18;
77699;PMS5003;66867;42.658;23.320;2023-04-03T00:42:00;22;20;
77699;PMS5003;66867;42.658;23.320;2023-04-03T00:43:00;17;17;
77699;PMS5003;66867;42.658;23.320;2023-04-03T00:44:00;20;19;
77699;PMS5003;66867;42.658;23.320;2023-04-03T00:46:00;20;19;
77699;PMS5003;66867;42.658;23.320;2023-04-03T00:47:02;13;13;
77699;PMS5003;66867;42.658;23.320;2023-04-03T00:48:03;18;17;
77699;PMS5003;66867;42.658;23.320;2023-04-03T00:49:00;16;14;
77699;PMS5003;66867;42.658;23.320;2023-04-03T00:50:00;18;17;
77699;PMS5003;66867;42.658;23.320;2023-04-03T00:51:01;14;14;
77699;PMS5003;66867;42.658;23.320;2023-04-03T00:52:00;18;18;
77699;PMS5003;66867;42.658;23.320;2023-04-03T00:53:00;15;15;
77699;PMS5003;66867;42.658;23.320;2023-04-03T00:54:02;13;13;
77699;PMS5003;66867;42.658;23.320;2023-04-03T00:55:04;13;13;
77699;PMS5003;66867;42.658;23.320;2023-04-03T00:56:00;14;12;
77699;PMS5003;66867;42.658;23.320;2023-04-03T00:57:00;15;15;
77699;PMS5003;66867;42.658;23.320;2023-04-03T00:58:01;13;12;
77699;PMS5003;66867;42.658;23.320;2023-04-03T00:59:04;16;16;
77699;PMS5003;66867;42.658;23.320;2023-04-03T01:00:05;15;15;
77699;PMS5003;66867;42.658;23.320;2023-04-03T01:01:03;13;13;
77699;PMS5003;66867;42.658;23.320;2023-04-03T01:02:00;15;15;
77699;PMS5003;66867;42.658;23.320;2023-04-03T01:03:00;15;13;
77699;PMS5003;66867;42.658;23.320;2023-04-03T01:04:00;15;13;
77699;PMS5003;66867;42.658;23.320;2023-04-03T01:05:00;16;13;
77699;PMS5003;66867;42.658;23.320;2023-04-03T01:06:00;13;13;
77699;PMS5003;66867;42.658;23.320;2023-04-03T01:07:04;15;15;
77699;PMS5003;66867;42.658;23.320;2023-04-03T01:08:00;15;15;
77699;PMS5003;66867;42.658;23.320;2023-04-03T01:09:01;13;13;
77699;PMS5003;66867;42.658;23.320;2023-04-03T01:10:03;15;15;
77699;PMS5003;66867;42.658;23.320;2023-04-03T01:11:00;15;15;
77699;PMS5003;66867;42.658;23.320;2023-04-03T01:13:00;16;16;
77699;PMS5003;66867;42.658;23.320;2023-04-03T01:14:00;17;16;
77699;PMS5003;66867;42.658;23.320;2023-04-03T01:15:04;15;13;
77699;PMS5003;66867;42.658;23.320;2023-04-03T01:16:01;12;12;
77699;PMS5003;66867;42.658;23.320;2023-04-03T01:17:00;14;14;
77699;PMS5003;66867;42.658;23.320;2023-04-03T01:18:00;17;17;
77699;PMS5003;66867;42.658;23.320;2023-04-03T01:19:01;17;16;
77699;PMS5003;66867;42.658;23.320;2023-04-03T01:22:05;19;17;
77699;PMS5003;66867;42.658;23.320;2023-04-03T01:25:00;16;16;
77699;PMS5003;66867;42.658;23.320;2023-04-03T01:26:00;17;17;
77699;PMS5003;66867;42.658;23.320;2023-04-03T01:27:03;18;18;
77699;PMS5003;66867;42.658;23.320;2023-04-03T01:28:00;16;16;
77699;PMS5003;66867;42.658;23.320;2023-04-03T01:29:00;16;16;
77699;PMS5003;66867;42.658;23.320;2023-04-03T01:30:00;18;17;
77699;PMS5003;66867;42.658;23.320;2023-04-03T01:32:01;16;16;
77699;PMS5003;66867;42.658;23.320;2023-04-03T01:33:00;16;16;
77699;PMS5003;66867;42.658;23.320;2023-04-03T01:34:01;16;16;
77699;PMS5003;66867;42.658;23.320;2023-04-03T01:35:00;16;16;
77699;PMS5003;66867;42.658;23.320;2023-04-03T01:36:00;16;16;
77699;PMS5003;66867;42.658;23.320;2023-04-03T01:37:00;13;13;
77699;PMS5003;66867;42.658;23.320;2023-04-03T01:38:00;17;15;
77699;PMS5003;66867;42.658;23.320;2023-04-03T01:39:01;13;13;
77699;PMS5003;66867;42.658;23.320;2023-04-03T01:40:00;16;16;
77699;PMS5003;66867;42.658;23.320;2023-04-03T01:41:00;15;13;
77699;PMS5003;66867;42.658;23.320;2023-04-03T01:42:00;12;12;
77699;PMS5003;66867;42.658;23.320;2023-04-03T01:43:00;12;12;
77699;PMS5003;66867;42.658;23.320;2023-04-03T01:44:00;15;15;
77699;PMS5003;66867;42.658;23.320;2023-04-03T01:45:00;15;14;
77699;PMS5003;66867;42.658;23.320;2023-04-03T01:46:00;15;13;
77699;PMS5003;66867;42.658;23.320;2023-04-03T01:47:00;15;15;
77699;PMS5003;66867;42.658;23.320;2023-04-03T01:48:00;17;15;
77699;PMS5003;66867;42.658;23.320;2023-04-03T01:49:00;12;11;
77699;PMS5003;66867;42.658;23.320;2023-04-03T01:50:00;12;12;
77699;PMS5003;66867;42.658;23.320;2023-04-03T01:51:00;14;14;
77699;PMS5003;66867;42.658;23.320;2023-04-03T01:52:00;17;16;
77699;PMS5003;66867;42.658;23.320;2023-04-03T01:53:00;14;14;
77699;PMS5003;66867;42.658;23.320;2023-04-03T01:54:00;12;12;
77699;PMS5003;66867;42.658;23.320;2023-04-03T01:55:00;12;12;
77699;PMS5003;66867;42.658;23.320;2023-04-03T01:56:00;14;12;
77699;PMS5003;66867;42.658;23.320;2023-04-03T01:57:00;12;12;
77699;PMS5003;66867;42.658;23.320;2023-04-03T01:58:00;14;14;
77699;PMS5003;66867;42.658;23.320;2023-04-03T01:59:00;15;14;
77699;PMS5003;66867;42.658;23.320;2023-04-03T02:00:00;10;10;
77699;PMS5003;66867;42.658;23.320;2023-04-03T02:01:00;15;15;
77699;PMS5003;66867;42.658;23.320;2023-04-03T02:02:00;15;12;
77699;PMS5003;66867;42.658;23.320;2023-04-03T02:03:00;15;15;
77699;PMS5003;66867;42.658;23.320;2023-04-03T02:04:00;16;15;
77699;PMS5003;66867;42.658;23.320;2023-04-03T02:05:00;13;12;
77699;PMS5003;66867;42.658;23.320;2023-04-03T02:06:00;13;13;
77699;PMS5003;66867;42.658;23.320;2023-04-03T02:07:00;15;15;
77699;PMS5003;66867;42.658;23.320;2023-04-03T02:08:00;14;14;
77699;PMS5003;66867;42.658;23.320;2023-04-03T02:09:00;15;14;
77699;PMS5003;66867;42.658;23.320;2023-04-03T02:10:00;15;15;
77699;PMS5003;66867;42.658;23.320;2023-04-03T02:11:00;19;18;
77699;PMS5003;66867;42.658;23.320;2023-04-03T02:12:00;17;17;
77699;PMS5003;66867;42.658;23.320;2023-04-03T02:13:00;16;16;
77699;PMS5003;66867;42.658;23.320;2023-04-03T02:14:00;17;17;
77699;PMS5003;66867;42.658;23.320;2023-04-03T02:15:00;17;17;
77699;PMS5003;66867;42.658;23.320;2023-04-03T02:16:06;16;15;
77699;PMS5003;66867;42.658;23.320;2023-04-03T02:17:00;16;14;
77699;PMS5003;66867;42.658;23.320;2023-04-03T02:18:00;17;16;
77699;PMS5003;66867;42.658;23.320;2023-04-03T02:19:00;12;12;
77699;PMS5003;66867;42.658;23.320;2023-04-03T02:20:00;15;14;
77699;PMS5003;66867;42.658;23.320;2023-04-03T02:21:00;19;18;
77699;PMS5003;66867;42.658;23.320;2023-04-03T02:22:01;14;14;
77699;PMS5003;66867;42.658;23.320;2023-04-03T02:23:00;18;15;
77699;PMS5003;66867;42.658;23.320;2023-04-03T02:24:00;16;15;
77699;PMS5003;66867;42.658;23.320;2023-04-03T02:25:00;15;15;
77699;PMS5003;66867;42.658;23.320;2023-04-03T02:26:04;14;14;
77699;PMS5003;66867;42.658;23.320;2023-04-03T02:27:00;15;15;
77699;PMS5003;66867;42.658;23.320;2023-04-03T02:28:00;15;15;
77699;PMS5003;66867;42.658;23.320;2023-04-03T02:29:00;15;15;
77699;PMS5003;66867;42.658;23.320;2023-04-03T02:30:00;15;14;
77699;PMS5003;66867;42.658;23.320;2023-04-03T02:31:00;14;14;
77699;PMS5003;66867;42.658;23.320;2023-04-03T02:32:00;16;15;
77699;PMS5003;66867;42.658;23.320;2023-04-03T02:33:00;15;15;
77699;PMS5003;66867;42.658;23.320;2023-04-03T02:34:00;15;15;
77699;PMS5003;66867;42.658;23.320;2023-04-03T02:35:00;15;15;
77699;PMS5003;66867;42.658;23.320;2023-04-03T02:36:00;17;15;
77699;PMS5003;66867;42.658;23.320;2023-04-03T02:37:00;18;17;
77699;PMS5003;66867;42.658;23.320;2023-04-03T02:38:00;16;16;
77699;PMS5003;66867;42.658;23.320;2023-04-03T02:39:00;18;18;
77699;PMS5003;66867;42.658;23.320;2023-04-03T02:40:00;18;17;
77699;PMS5003;66867;42.658;23.320;2023-04-03T02:41:10;18;16;
77699;PMS5003;66867;42.658;23.320;2023-04-03T02:42:00;18;17;
77699;PMS5003;66867;42.658;23.320;2023-04-03T02:43:00;17;17;
77699;PMS5003;66867;42.658;23.320;2023-04-03T02:44:01;17;17;
77699;PMS5003;66867;42.658;23.320;2023-04-03T02:45:00;17;16;
77699;PMS5003;66867;42.658;23.320;2023-04-03T02:46:00;22;19;
77699;PMS5003;66867;42.658;23.320;2023-04-03T02:47:00;21;18;
77699;PMS5003;66867;42.658;23.320;2023-04-03T02:48:00;27;27;
77699;PMS5003;66867;42.658;23.320;2023-04-03T02:49:00;27;27;
77699;PMS5003;66867;42.658;23.320;2023-04-03T02:58:00;23;23;
77699;PMS5003;66867;42.658;23.320;2023-04-03T03:01:00;21;21;
77699;PMS5003;66867;42.658;23.320;2023-04-03T03:02:00;20;20;
77699;PMS5003;66867;42.658;23.320;2023-04-03T03:03:00;23;22;
77699;PMS5003;66867;42.658;23.320;2023-04-03T03:04:00;23;22;
77699;PMS5003;66867;42.658;23.320;2023-04-03T03:05:00;20;19;
77699;PMS5003;66867;42.658;23.320;2023-04-03T03:06:02;27;25;
77699;PMS5003;66867;42.658;23.320;2023-04-03T03:07:00;21;21;
77699;PMS5003;66867;42.658;23.320;2023-04-03T03:08:00;20;18;
77699;PMS5003;66867;42.658;23.320;2023-04-03T03:09:00;18;18;
77699;PMS5003;66867;42.658;23.320;2023-04-03T03:10:00;20;18;
77699;PMS5003;66867;42.658;23.320;2023-04-03T03:11:00;22;20;
77699;PMS5003;66867;42.658;23.320;2023-04-03T03:12:00;18;17;
77699;PMS5003;66867;42.658;23.320;2023-04-03T03:13:00;18;17;
77699;PMS5003;66867;42.658;23.320;2023-04-03T03:14:00;18;18;
77699;PMS5003;66867;42.658;23.320;2023-04-03T03:15:00;20;20;
77699;PMS5003;66867;42.658;23.320;2023-04-03T03:16:01;21;21;
77699;PMS5003;66867;42.658;23.320;2023-04-03T03:17:00;17;16;
77699;PMS5003;66867;42.658;23.320;2023-04-03T03:18:00;18;18;
77699;PMS5003;66867;42.658;23.320;2023-04-03T03:19:00;21;21;
77699;PMS5003;66867;42.658;23.320;2023-04-03T03:20:00;22;20;
77699;PMS5003;66867;42.658;23.320;2023-04-03T03:21:01;17;17;
77699;PMS5003;66867;42.658;23.320;2023-04-03T03:22:00;20;17;
77699;PMS5003;66867;42.658;23.320;2023-04-03T03:23:00;20;17;
77699;PMS5003;66867;42.658;23.320;2023-04-03T03:24:00;17;17;
77699;PMS5003;66867;42.658;23.320;2023-04-03T03:25:00;20;18;
77699;PMS5003;66867;42.658;23.320;2023-04-03T03:26:03;16;15;
77699;PMS5003;66867;42.658;23.320;2023-04-03T03:27:00;20;20;
77699;PMS5003;66867;42.658;23.320;2023-04-03T03:28:00;20;20;
77699;PMS5003;66867;42.658;23.320;2023-04-03T03:29:00;21;21;
77699;PMS5003;66867;42.658;23.320;2023-04-03T03:30:00;21;19;
77699;PMS5003;66867;42.658;23.320;2023-04-03T03:31:00;16;15;
77699;PMS5003;66867;42.658;23.320;2023-04-03T03:32:00;22;20;
77699;PMS5003;66867;42.658;23.320;2023-04-03T03:33:00;21;21;
77699;PMS5003;66867;42.658;23.320;2023-04-03T03:34:00;23;22;
77699;PMS5003;66867;42.658;23.320;2023-04-03T03:35:00;22;22;
77699;PMS5003;66867;42.658;23.320;2023-04-03T03:36:00;24;21;
77699;PMS5003;66867;42.658;23.320;2023-04-03T03:37:00;22;21;
77699;PMS5003;66867;42.658;23.320;2023-04-03T03:38:00;22;20;
77699;PMS5003;66867;42.658;23.320;2023-04-03T03:39:00;18;18;
77699;PMS5003;66867;42.658;23.320;2023-04-03T03:40:00;19;17;
77699;PMS5003;66867;42.658;23.320;2023-04-03T03:41:00;20;20;
77699;PMS5003;66867;42.658;23.320;2023-04-03T03:42:00;20;19;
77699;PMS5003;66867;42.658;23.320;2023-04-03T03:43:00;24;24;
77699;PMS5003;66867;42.658;23.320;2023-04-03T03:44:00;17;17;
77699;PMS5003;66867;42.658;23.320;2023-04-03T03:45:00;20;18;
77699;PMS5003;66867;42.658;23.320;2023-04-03T03:46:00;26;23;
77699;PMS5003;66867;42.658;23.320;2023-04-03T03:47:00;23;23;
77699;PMS5003;66867;42.658;23.320;2023-04-03T03:48:01;20;19;
77699;PMS5003;66867;42.658;23.320;2023-04-03T03:49:00;20;20;
77699;PMS5003;66867;42.658;23.320;2023-04-03T03:50:00;19;19;
77699;PMS5003;66867;42.658;23.320;2023-04-03T03:51:00;20;20;
77699;PMS5003;66867;42.658;23.320;2023-04-03T03:52:00;23;23;
77699;PMS5003;66867;42.658;23.320;2023-04-03T03:53:00;23;21;
77699;PMS5003;66867;42.658;23.320;2023-04-03T03:54:00;22;22;
77699;PMS5003;66867;42.658;23.320;2023-04-03T03:55:00;21;21;
77699;PMS5003;66867;42.658;23.320;2023-04-03T03:56:00;22;22;
77699;PMS5003;66867;42.658;23.320;2023-04-03T03:57:00;23;23;
77699;PMS5003;66867;42.658;23.320;2023-04-03T03:58:00;21;21;
77699;PMS5003;66867;42.658;23.320;2023-04-03T03:59:00;27;24;
77699;PMS5003;66867;42.658;23.320;2023-04-03T04:00:00;23;23;
77699;PMS5003;66867;42.658;23.320;2023-04-03T04:01:02;22;22;
77699;PMS5003;66867;42.658;23.320;2023-04-03T04:02:00;23;23;
77699;PMS5003;66867;42.658;23.320;2023-04-03T04:03:00;24;22;
77699;PMS5003;66867;42.658;23.320;2023-04-03T04:04:00;27;27;
77699;PMS5003;66867;42.658;23.320;2023-04-03T04:05:00;33;32;
77699;PMS5003;66867;42.658;23.320;2023-04-03T04:06:00;28;28;
77699;PMS5003;66867;42.658;23.320;2023-04-03T04:07:00;28;26;
77699;PMS5003;66867;42.658;23.320;2023-04-03T04:08:00;28;28;
77699;PMS5003;66867;42.658;23.320;2023-04-03T04:09:00;27;26;
77699;PMS5003;66867;42.658;23.320;2023-04-03T04:10:00;26;24;
77699;PMS5003;66867;42.658;23.320;2023-04-03T04:11:00;23;23;
77699;PMS5003;66867;42.658;23.320;2023-04-03T04:12:00;24;23;
77699;PMS5003;66867;42.658;23.320;2023-04-03T04:13:00;28;27;
77699;PMS5003;66867;42.658;23.320;2023-04-03T04:14:00;29;28;
77699;PMS5003;66867;42.658;23.320;2023-04-03T04:15:00;27;26;
77699;PMS5003;66867;42.658;23.320;2023-04-03T04:16:00;31;27;
77699;PMS5003;66867;42.658;23.320;2023-04-03T04:17:00;28;27;
77699;PMS5003;66867;42.658;23.320;2023-04-03T04:18:00;23;23;
77699;PMS5003;66867;42.658;23.320;2023-04-03T04:19:00;32;31;
77699;PMS5003;66867;42.658;23.320;2023-04-03T04:20:01;29;27;
77699;PMS5003;66867;42.658;23.320;2023-04-03T04:21:00;29;27;
77699;PMS5003;66867;42.658;23.320;2023-04-03T04:22:00;29;28;
77699;PMS5003;66867;42.658;23.320;2023-04-03T04:23:00;46;41;
77699;PMS5003;66867;42.658;23.320;2023-04-03T04:24:00;38;36;
77699;PMS5003;66867;42.658;23.320;2023-04-03T04:25:00;35;35;
77699;PMS5003;66867;42.658;23.320;2023-04-03T04:26:00;39;34;
77699;PMS5003;66867;42.658;23.320;2023-04-03T04:27:00;38;36;
77699;PMS5003;66867;42.658;23.320;2023-04-03T04:28:00;39;37;
77699;PMS5003;66867;42.658;23.320;2023-04-03T04:29:00;34;33;
77699;PMS5003;66867;42.658;23.320;2023-04-03T04:30:00;36;35;
77699;PMS5003;66867;42.658;23.320;2023-04-03T04:31:00;37;35;
77699;PMS5003;66867;42.658;23.320;2023-04-03T04:32:00;36;35;
77699;PMS5003;66867;42.658;23.320;2023-04-03T04:33:00;33;31;
77699;PMS5003;66867;42.658;23.320;2023-04-03T04:34:00;35;33;
77699;PMS5003;66867;42.658;23.320;2023-04-03T04:35:00;40;36;
77699;PMS5003;66867;42.658;23.320;2023-04-03T04:36:00;38;35;
77699;PMS5003;66867;42.658;23.320;2023-04-03T04:37:00;33;33;
77699;PMS5003;66867;42.658;23.320;2023-04-03T04:38:00;35;34;
77699;PMS5003;66867;42.658;23.320;2023-04-03T04:39:00;41;39;
77699;PMS5003;66867;42.658;23.320;2023-04-03T04:40:00;42;38;
77699;PMS5003;66867;42.658;23.320;2023-04-03T04:41:00;37;35;
77699;PMS5003;66867;42.658;23.320;2023-04-03T04:42:00;38;35;
77699;PMS5003;66867;42.658;23.320;2023-04-03T04:43:00;38;37;
77699;PMS5003;66867;42.658;23.320;2023-04-03T04:44:00;44;38;
77699;PMS5003;66867;42.658;23.320;2023-04-03T04:45:00;41;37;
77699;PMS5003;66867;42.658;23.320;2023-04-03T04:46:01;41;37;
77699;PMS5003;66867;42.658;23.320;2023-04-03T04:47:00;40;36;
77699;PMS5003;66867;42.658;23.320;2023-04-03T04:48:00;37;35;
77699;PMS5003;66867;42.658;23.320;2023-04-03T04:49:00;45;38;
77699;PMS5003;66867;42.658;23.320;2023-04-03T04:50:00;32;32;
77699;PMS5003;66867;42.658;23.320;2023-04-03T04:51:00;37;35;
77699;PMS5003;66867;42.658;23.320;2023-04-03T04:52:00;35;34;
77699;PMS5003;66867;42.658;23.320;2023-04-03T04:53:00;36;35;
77699;PMS5003;66867;42.658;23.320;2023-04-03T04:54:00;37;34;
77699;PMS5003;66867;42.658;23.320;2023-04-03T04:55:00;34;31;
77699;PMS5003;66867;42.658;23.320;2023-04-03T04:56:00;29;29;
77699;PMS5003;66867;42.658;23.320;2023-04-03T04:57:00;37;31;
77699;PMS5003;66867;42.658;23.320;2023-04-03T04:58:00;37;35;
77699;PMS5003;66867;42.658;23.320;2023-04-03T04:59:01;37;34;
77699;PMS5003;66867;42.658;23.320;2023-04-03T05:00:00;45;41;
77699;PMS5003;66867;42.658;23.320;2023-04-03T05:01:03;50;42;
77699;PMS5003;66867;42.658;23.320;2023-04-03T05:02:00;41;38;
77699;PMS5003;66867;42.658;23.320;2023-04-03T05:03:00;38;36;
77699;PMS5003;66867;42.658;23.320;2023-04-03T05:04:00;42;36;
77699;PMS5003;66867;42.658;23.320;2023-04-03T05:05:00;42;37;
77699;PMS5003;66867;42.658;23.320;2023-04-03T05:06:00;39;37;
77699;PMS5003;66867;42.658;23.320;2023-04-03T05:07:00;30;30;
77699;PMS5003;66867;42.658;23.320;2023-04-03T05:08:00;42;37;
77699;PMS5003;66867;42.658;23.320;2023-04-03T05:09:00;39;35;
77699;PMS5003;66867;42.658;23.320;2023-04-03T05:10:00;39;36;
77699;PMS5003;66867;42.658;23.320;2023-04-03T05:11:00;39;35;
77699;PMS5003;66867;42.658;23.320;2023-04-03T05:12:00;32;32;
77699;PMS5003;66867;42.658;23.320;2023-04-03T05:13:00;38;34;
77699;PMS5003;66867;42.658;23.320;2023-04-03T05:14:00;35;34;
77699;PMS5003;66867;42.658;23.320;2023-04-03T05:15:00;31;30;
77699;PMS5003;66867;42.658;23.320;2023-04-03T05:16:00;43;38;
77699;PMS5003;66867;42.658;23.320;2023-04-03T05:17:00;43;37;
77699;PMS5003;66867;42.658;23.320;2023-04-03T05:18:00;46;40;
77699;PMS5003;66867;42.658;23.320;2023-04-03T05:19:00;46;40;
77699;PMS5003;66867;42.658;23.320;2023-04-03T05:24:01;46;40;
77699;PMS5003;66867;42.658;23.320;2023-04-03T05:25:00;49;42;
77699;PMS5003;66867;42.658;23.320;2023-04-03T05:26:00;44;39;
77699;PMS5003;66867;42.658;23.320;2023-04-03T05:27:00;55;46;
77699;PMS5003;66867;42.658;23.320;2023-04-03T05:28:00;53;45;
77699;PMS5003;66867;42.658;23.320;2023-04-03T05:29:00;53;44;
77699;PMS5003;66867;42.658;23.320;2023-04-03T05:30:00;50;40;
77699;PMS5003;66867;42.658;23.320;2023-04-03T05:31:00;47;41;
77699;PMS5003;66867;42.658;23.320;2023-04-03T05:32:00;52;41;
77699;PMS5003;66867;42.658;23.320;2023-04-03T05:33:00;45;38;
77699;PMS5003;66867;42.658;23.320;2023-04-03T05:34:00;48;41;
77699;PMS5003;66867;42.658;23.320;2023-04-03T05:35:00;44;39;
77699;PMS5003;66867;42.658;23.320;2023-04-03T05:36:04;54;44;
77699;PMS5003;66867;42.658;23.320;2023-04-03T05:37:00;52;44;
77699;PMS5003;66867;42.658;23.320;2023-04-03T05:38:00;49;42;
77699;PMS5003;66867;42.658;23.320;2023-04-03T05:39:00;43;40;
77699;PMS5003;66867;42.658;23.320;2023-04-03T05:40:00;45;39;
77699;PMS5003;66867;42.658;23.320;2023-04-03T05:41:00;47;40;
77699;PMS5003;66867;42.658;23.320;2023-04-03T05:42:00;46;40;
77699;PMS5003;66867;42.658;23.320;2023-04-03T05:43:00;42;39;
77699;PMS5003;66867;42.658;23.320;2023-04-03T05:44:00;41;38;
77699;PMS5003;66867;42.658;23.320;2023-04-03T05:45:00;46;40;
77699;PMS5003;66867;42.658;23.320;2023-04-03T05:46:00;45;40;
77699;PMS5003;66867;42.658;23.320;2023-04-03T05:47:00;41;38;
77699;PMS5003;66867;42.658;23.320;2023-04-03T05:48:00;42;37;
77699;PMS5003;66867;42.658;23.320;2023-04-03T05:49:00;42;37;
77699;PMS5003;66867;42.658;23.320;2023-04-03T05:50:00;47;40;
77699;PMS5003;66867;42.658;23.320;2023-04-03T05:51:00;44;40;
77699;PMS5003;66867;42.658;23.320;2023-04-03T05:52:01;39;36;
77699;PMS5003;66867;42.658;23.320;2023-04-03T05:53:01;48;41;
77699;PMS5003;66867;42.658;23.320;2023-04-03T05:54:15;43;37;
77699;PMS5003;66867;42.658;23.320;2023-04-03T05:55:00;43;37;
77699;PMS5003;66867;42.658;23.320;2023-04-03T06:06:02;49;41;
77699;PMS5003;66867;42.658;23.320;2023-04-03T06:07:00;50;42;
77699;PMS5003;66867;42.658;23.320;2023-04-03T06:08:00;50;42;
77699;PMS5003;66867;42.658;23.320;2023-04-03T06:09:00;47;40;
77699;PMS5003;66867;42.658;23.320;2023-04-03T06:10:00;44;39;
77699;PMS5003;66867;42.658;23.320;2023-04-03T06:11:00;48;40;
77699;PMS5003;66867;42.658;23.320;2023-04-03T06:12:00;46;40;
77699;PMS5003;66867;42.658;23.320;2023-04-03T06:13:00;49;43;
77699;PMS5003;66867;42.658;23.320;2023-04-03T06:14:00;53;44;
77699;PMS5003;66867;42.658;23.320;2023-04-03T06:15:00;59;49;
77699;PMS5003;66867;42.658;23.320;2023-04-03T06:16:00;53;45;
77699;PMS5003;66867;42.658;23.320;2023-04-03T06:17:00;52;44;
77699;PMS5003;66867;42.658;23.320;2023-04-03T06:18:00;55;45;
77699;PMS5003;66867;42.658;23.320;2023-04-03T06:19:00;58;47;
77699;PMS5003;66867;42.658;23.320;2023-04-03T06:20:00;55;47;
77699;PMS5003;66867;42.658;23.320;2023-04-03T06:21:00;55;47;
77699;PMS5003;66867;42.658;23.320;2023-04-03T06:38:00;55;46;
77699;PMS5003;66867;42.658;23.320;2023-04-03T06:39:01;50;43;
77699;PMS5003;66867;42.658;23.320;2023-04-03T06:40:00;45;39;
77699;PMS5003;66867;42.658;23.320;2023-04-03T06:41:00;52;42;
77699;PMS5003;66867;42.658;23.320;2023-04-03T06:42:00;42;38;
77699;PMS5003;66867;42.658;23.320;2023-04-03T06:43:00;47;40;
77699;PMS5003;66867;42.658;23.320;2023-04-03T06:44:00;54;45;
77699;PMS5003;66867;42.658;23.320;2023-04-03T06:45:00;56;47;
77699;PMS5003;66867;42.658;23.320;2023-04-03T06:46:00;54;45;
77699;PMS5003;66867;42.658;23.320;2023-04-03T06:47:01;54;46;
77699;PMS5003;66867;42.658;23.320;2023-04-03T06:48:00;54;45;
77699;PMS5003;66867;42.658;23.320;2023-04-03T06:49:00;53;44;
77699;PMS5003;66867;42.658;23.320;2023-04-03T06:50:00;55;46;
77699;PMS5003;66867;42.658;23.320;2023-04-03T06:51:00;53;45;
77699;PMS5003;66867;42.658;23.320;2023-04-03T06:52:00;59;50;
77699;PMS5003;66867;42.658;23.320;2023-04-03T06:53:00;64;53;
77699;PMS5003;66867;42.658;23.320;2023-04-03T06:54:01;63;52;
77699;PMS5003;66867;42.658;23.320;2023-04-03T06:55:00;59;49;
77699;PMS5003;66867;42.658;23.320;2023-04-03T06:56:00;62;50;
77699;PMS5003;66867;42.658;23.320;2023-04-03T06:57:00;58;47;
77699;PMS5003;66867;42.658;23.320;2023-04-03T06:58:00;61;48;
77699;PMS5003;66867;42.658;23.320;2023-04-03T06:59:00;57;48;
77699;PMS5003;66867;42.658;23.320;2023-04-03T07:00:00;61;51;
77699;PMS5003;66867;42.658;23.320;2023-04-03T07:01:00;58;48;
77699;PMS5003;66867;42.658;23.320;2023-04-03T07:02:00;57;48;
77699;PMS5003;66867;42.658;23.320;2023-04-03T07:03:00;56;47;
77699;PMS5003;66867;42.658;23.320;2023-04-03T07:04:00;58;47;
77699;PMS5003;66867;42.658;23.320;2023-04-03T07:05:00;58;48;
77699;PMS5003;66867;42.658;23.320;2023-04-03T07:06:00;58;47;
77699;PMS5003;66867;42.658;23.320;2023-04-03T07:07:00;57;47;
77699;PMS5003;66867;42.658;23.320;2023-04-03T07:08:00;55;47;
77699;PMS5003;66867;42.658;23.320;2023-04-03T07:09:00;55;46;
77699;PMS5003;66867;42.658;23.320;2023-04-03T07:10:00;57;48;
77699;PMS5003;66867;42.658;23.320;2023-04-03T07:11:00;57;47;
77699;PMS5003;66867;42.658;23.320;2023-04-03T07:12:00;55;47;
77699;PMS5003;66867;42.658;23.320;2023-04-03T07:13:00;59;48;
77699;PMS5003;66867;42.658;23.320;2023-04-03T07:14:00;59;48;
77699;PMS5003;66867;42.658;23.320;2023-04-03T07:15:00;54;46;
77699;PMS5003;66867;42.658;23.320;2023-04-03T07:16:00;50;43;
77699;PMS5003;66867;42.658;23.320;2023-04-03T07:17:00;53;44;
77699;PMS5003;66867;42.658;23.320;2023-04-03T07:18:00;53;45;